createdAt,value
2018-04-13T00:01:40.817Z,16.80
2018-04-13T00:04:08.427Z,16.80
2018-04-13T00:06:36.058Z,16.90
2018-04-13T00:09:03.703Z,16.80
2018-04-13T00:11:31.310Z,16.80
2018-04-13T00:13:58.999Z,16.80
2018-04-13T00:16:26.635Z,16.80
2018-04-13T00:18:54.296Z,16.70
2018-04-13T00:21:21.888Z,16.80
2018-04-13T00:23:50.135Z,16.70
2018-04-13T00:26:17.790Z,16.80
2018-04-13T00:28:45.384Z,16.80
2018-04-13T00:31:13.024Z,16.70
2018-04-13T00:33:40.674Z,16.70
2018-04-13T00:36:08.309Z,16.70
2018-04-13T00:38:36.696Z,16.70
2018-04-13T00:41:05.060Z,16.60
2018-04-13T00:43:33.457Z,16.70
2018-04-13T00:46:02.440Z,16.60
2018-04-13T00:48:30.843Z,16.60
2018-04-13T00:50:58.626Z,16.60
2018-04-13T00:53:29.164Z,16.50
2018-04-13T00:55:56.826Z,16.50
2018-04-13T00:58:24.470Z,16.50
2018-04-13T01:00:52.102Z,16.50
2018-04-13T01:03:20.488Z,16.50
2018-04-13T01:05:48.128Z,16.50
2018-04-13T01:08:16.512Z,16.50
2018-04-13T01:10:44.848Z,16.40
2018-04-13T01:13:12.431Z,16.40
2018-04-13T01:15:40.841Z,16.50
2018-04-13T01:18:08.423Z,16.50
2018-04-13T01:20:36.094Z,16.60
2018-04-13T01:23:04.057Z,16.60
2018-04-13T01:25:31.720Z,16.60
2018-04-13T01:27:59.351Z,16.60
2018-04-13T01:30:27.020Z,16.60
2018-04-13T01:32:54.682Z,16.60
2018-04-13T01:35:22.303Z,16.50
2018-04-13T01:37:49.950Z,16.50
2018-04-13T01:40:17.619Z,16.50
2018-04-13T01:42:46.051Z,16.50
2018-04-13T01:45:14.550Z,16.50
2018-04-13T01:47:42.909Z,16.50
2018-04-13T01:50:10.501Z,16.50
2018-04-13T01:52:38.172Z,16.50
2018-04-13T01:55:05.808Z,16.50
2018-04-13T01:57:33.397Z,16.50
2018-04-13T02:00:01.049Z,16.40
2018-04-13T02:02:28.683Z,16.40
2018-04-13T02:04:56.939Z,16.40
2018-04-13T02:07:24.538Z,16.40
2018-04-13T02:09:52.169Z,16.30
2018-04-13T02:12:19.760Z,16.30
2018-04-13T02:14:47.345Z,16.30
2018-04-13T02:17:15.725Z,16.20
2018-04-13T02:19:44.100Z,16.20
2018-04-13T02:22:12.522Z,16.10
2018-04-13T02:24:40.143Z,16.10
2018-04-13T02:27:08.523Z,16.10
2018-04-13T02:29:36.950Z,16.10
2018-04-13T02:32:04.577Z,16.00
2018-04-13T02:34:32.425Z,16.10
2018-04-13T02:37:00.008Z,16.10
2018-04-13T02:39:27.627Z,16.10
2018-04-13T02:41:55.207Z,16.10
2018-04-13T02:44:23.640Z,16.10
2018-04-13T02:46:51.451Z,16.10
2018-04-13T02:49:19.795Z,16.10
2018-04-13T02:51:47.429Z,16.10
2018-04-13T02:54:15.647Z,16.10
2018-04-13T02:56:44.742Z,16.10
2018-04-13T02:59:13.156Z,16.00
2018-04-13T03:01:41.480Z,16.00
2018-04-13T03:04:09.107Z,16.00
2018-04-13T03:06:36.772Z,16.10
2018-04-13T03:09:04.355Z,16.10
2018-04-13T03:11:31.956Z,16.00
2018-04-13T03:13:59.812Z,16.00
2018-04-13T03:16:28.190Z,16.00
2018-04-13T03:18:56.655Z,16.00
2018-04-13T03:21:24.839Z,16.00
2018-04-13T03:23:53.226Z,15.90
2018-04-13T03:26:21.753Z,15.90
2018-04-13T03:28:49.417Z,15.90
2018-04-13T03:31:17.028Z,15.90
2018-04-13T03:33:45.412Z,15.90
2018-04-13T03:36:13.829Z,15.80
2018-04-13T03:38:41.423Z,15.80
2018-04-13T03:41:09.031Z,15.90
2018-04-13T03:43:36.657Z,15.90
2018-04-13T03:46:05.051Z,16.00
2018-04-13T03:48:32.668Z,15.90
2018-04-13T03:51:00.315Z,16.00
2018-04-13T03:53:27.981Z,16.00
2018-04-13T03:55:55.580Z,16.00
2018-04-13T03:58:23.981Z,16.10
2018-04-13T04:00:51.640Z,16.10
2018-04-13T04:03:19.230Z,16.10
2018-04-13T04:05:46.814Z,16.10
2018-04-13T04:08:14.419Z,16.20
2018-04-13T04:10:42.061Z,16.10
2018-04-13T04:13:10.484Z,16.20
2018-04-13T04:15:38.121Z,16.20
2018-04-13T04:18:05.741Z,16.20
2018-04-13T04:20:45.243Z,16.20
2018-04-13T04:23:24.817Z,16.10
2018-04-13T04:28:56.134Z,16.20
2018-04-13T04:31:23.795Z,16.20
2018-04-13T04:33:51.457Z,16.20
2018-04-13T04:36:19.091Z,16.20
2018-04-13T04:38:46.781Z,16.20
2018-04-13T04:41:14.546Z,16.20
2018-04-13T04:43:42.128Z,16.20
2018-04-13T04:46:09.738Z,16.30
2018-04-13T04:48:38.152Z,16.30
2018-04-13T04:51:05.812Z,16.30
2018-04-13T04:53:33.424Z,16.30
2018-04-13T04:56:01.801Z,16.40
2018-04-13T04:58:30.212Z,16.40
2018-04-13T05:00:57.816Z,16.40
2018-04-13T05:03:25.491Z,16.40
2018-04-13T05:05:53.144Z,16.40
2018-04-13T05:08:21.605Z,16.50
2018-04-13T05:10:49.204Z,16.60
2018-04-13T05:13:17.560Z,16.60
2018-04-13T05:15:45.175Z,16.60
2018-04-13T05:18:12.846Z,16.70
2018-04-13T05:20:40.446Z,16.70
2018-04-13T05:23:09.554Z,16.70
2018-04-13T05:25:37.956Z,16.70
2018-04-13T05:28:05.564Z,16.70
2018-04-13T05:30:33.176Z,16.70
2018-04-13T05:33:00.803Z,16.60
2018-04-13T05:35:28.482Z,16.70
2018-04-13T05:37:56.119Z,16.70
2018-04-13T05:40:23.772Z,16.70
2018-04-13T05:42:51.368Z,16.70
2018-04-13T05:45:19.813Z,16.60
2018-04-13T05:47:49.548Z,16.60
2018-04-13T05:50:17.929Z,16.70
2018-04-13T05:52:46.557Z,16.70
2018-04-13T05:55:14.159Z,16.70
2018-04-13T05:57:42.612Z,16.80
2018-04-13T06:00:10.262Z,16.80
2018-04-13T06:02:37.926Z,16.80
2018-04-13T06:05:05.560Z,16.90
2018-04-13T06:07:33.184Z,16.90
2018-04-13T06:10:01.639Z,17.00
2018-04-13T06:12:29.256Z,17.00
2018-04-13T06:14:56.921Z,17.00
2018-04-13T06:17:24.514Z,17.00
2018-04-13T06:19:52.127Z,17.10
2018-04-13T06:22:19.788Z,17.10
2018-04-13T06:24:47.427Z,17.10
2018-04-13T06:27:15.020Z,17.10
2018-04-13T06:29:42.644Z,17.10
2018-04-13T06:32:10.268Z,17.10
2018-04-13T06:34:37.869Z,17.00
2018-04-13T06:37:06.938Z,16.80
2018-04-13T06:39:34.573Z,16.80
2018-04-13T06:42:02.244Z,16.70
2018-04-13T06:44:30.622Z,16.60
2018-04-13T06:46:58.251Z,16.50
2018-04-13T06:49:25.864Z,16.50
2018-04-13T06:51:53.904Z,16.40
2018-04-13T06:54:21.601Z,16.40
2018-04-13T06:56:49.260Z,16.40
2018-04-13T06:59:16.870Z,16.40
2018-04-13T07:01:44.550Z,16.40
2018-04-13T07:04:12.195Z,16.40
2018-04-13T07:06:39.807Z,16.40
2018-04-13T07:09:07.428Z,16.40
2018-04-13T07:11:35.064Z,16.40
2018-04-13T07:14:02.733Z,16.50
2018-04-13T07:16:30.351Z,16.50
2018-04-13T07:18:57.984Z,16.50
2018-04-13T07:21:25.606Z,16.50
2018-04-13T07:23:54.164Z,16.60
2018-04-13T07:26:24.616Z,16.70
2018-04-13T07:28:52.282Z,16.70
2018-04-13T07:31:20.652Z,16.70
2018-04-13T07:33:48.242Z,16.70
2018-04-13T07:36:15.851Z,16.70
2018-04-13T07:38:45.080Z,16.70
2018-04-13T07:41:12.719Z,16.70
2018-04-13T07:43:40.414Z,16.60
2018-04-13T07:46:08.062Z,16.50
2018-04-13T07:48:35.700Z,16.50
2018-04-13T07:51:04.207Z,16.40
2018-04-13T07:53:31.788Z,16.40
2018-04-13T07:56:00.410Z,16.30
2018-04-13T07:58:28.811Z,16.10
2018-04-13T08:00:57.334Z,16.00
2018-04-13T08:03:24.972Z,16.00
2018-04-13T08:05:53.302Z,15.90
2018-04-13T08:08:21.845Z,15.90
2018-04-13T08:10:50.120Z,15.80
2018-04-13T08:13:17.844Z,15.90
2018-04-13T08:15:46.348Z,16.20
2018-04-13T08:18:13.871Z,16.20
2018-04-13T08:20:42.264Z,16.50
2018-04-13T08:23:10.774Z,16.50
2018-04-13T08:25:39.337Z,16.50
2018-04-13T08:28:06.961Z,16.50
2018-04-13T08:30:35.449Z,16.40
2018-04-13T08:33:03.169Z,16.40
2018-04-13T08:35:31.603Z,16.50
2018-04-13T08:37:59.264Z,16.60
2018-04-13T08:40:27.631Z,16.90
2018-04-13T08:42:56.185Z,17.00
2018-04-13T08:45:23.756Z,17.00
2018-04-13T08:47:51.449Z,17.20
2018-04-13T08:50:19.085Z,17.30
2018-04-13T08:52:47.491Z,17.10
2018-04-13T08:55:15.116Z,17.10
2018-04-13T08:57:43.719Z,17.00
2018-04-13T09:00:11.419Z,16.90
2018-04-13T09:02:39.014Z,17.00
2018-04-13T09:05:06.669Z,17.00
2018-04-13T09:07:34.253Z,17.00
2018-04-13T09:10:02.267Z,17.20
2018-04-13T09:12:30.497Z,17.30
2018-04-13T09:14:58.903Z,17.60
2018-04-13T09:17:26.564Z,17.60
2018-04-13T09:19:54.213Z,17.70
2018-04-13T09:22:21.876Z,17.90
2018-04-13T09:24:49.508Z,18.40
2018-04-13T09:27:18.676Z,18.80
2018-04-13T09:29:46.262Z,18.80
2018-04-13T09:32:13.885Z,18.80
2018-04-13T09:34:41.787Z,18.70
2018-04-13T09:37:09.424Z,18.70
2018-04-13T09:39:37.036Z,18.80
2018-04-13T09:42:05.518Z,19.00
2018-04-13T09:44:33.133Z,19.00
2018-04-13T09:47:00.814Z,19.20
2018-04-13T09:49:28.506Z,19.40
2018-04-13T09:51:56.120Z,19.70
2018-04-13T09:54:23.747Z,19.50
2018-04-13T09:56:51.384Z,19.50
2018-04-13T09:59:19.833Z,19.20
2018-04-13T10:01:47.629Z,19.20
2018-04-13T10:04:15.316Z,19.00
2018-04-13T10:06:42.953Z,18.80
2018-04-13T10:09:10.636Z,18.70
2018-04-13T10:11:38.265Z,18.70
2018-04-13T10:14:07.087Z,18.60
2018-04-13T10:16:34.708Z,18.60
2018-04-13T10:19:03.135Z,18.50
2018-04-13T10:21:30.873Z,18.40
2018-04-13T10:23:58.924Z,18.30
2018-04-13T10:26:27.927Z,17.90
2018-04-13T10:28:55.619Z,17.80
2018-04-13T10:31:23.338Z,17.80
2018-04-13T10:33:51.749Z,18.00
2018-04-13T10:36:19.423Z,18.10
2018-04-13T10:38:47.024Z,18.20
2018-04-13T10:41:14.832Z,18.10
2018-04-13T10:43:42.469Z,18.10
2018-04-13T10:46:10.898Z,18.00
2018-04-13T10:48:38.622Z,18.00
2018-04-13T10:51:06.420Z,18.10
2018-04-13T10:53:35.139Z,18.00
2018-04-13T10:56:02.917Z,18.20
2018-04-13T10:58:31.341Z,18.30
2018-04-13T11:00:59.050Z,18.30
2018-04-13T11:03:27.114Z,18.20
2018-04-13T11:05:54.840Z,18.10
2018-04-13T11:08:22.483Z,18.20
2018-04-13T11:10:50.193Z,18.00
2018-04-13T11:13:19.334Z,17.90
2018-04-13T11:15:46.975Z,17.90
2018-04-13T11:18:15.381Z,18.30
2018-04-13T11:20:43.189Z,18.30
2018-04-13T11:23:11.839Z,18.70
2018-04-13T11:25:39.515Z,18.70
2018-04-13T11:28:07.192Z,19.00
2018-04-13T11:30:34.878Z,19.30
2018-04-13T11:33:03.332Z,20.10
2018-04-13T11:35:31.028Z,20.10
2018-04-13T11:37:59.684Z,20.80
2018-04-13T11:40:28.959Z,21.10
2018-04-13T11:42:56.639Z,21.00
2018-04-13T11:45:24.290Z,21.00
2018-04-13T11:47:51.953Z,21.00
2018-04-13T11:50:19.589Z,21.00
2018-04-13T11:52:47.230Z,21.10
2018-04-13T11:55:14.975Z,21.30
2018-04-13T11:57:43.334Z,21.50
2018-04-13T12:00:11.069Z,21.50
2018-04-13T12:02:38.702Z,21.40
2018-04-13T12:05:06.328Z,21.50
2018-04-13T12:07:34.867Z,21.80
2018-04-13T12:10:02.460Z,21.80
2018-04-13T12:12:30.712Z,21.90
2018-04-13T12:14:58.393Z,21.90
2018-04-13T12:17:26.030Z,21.70
2018-04-13T12:19:53.696Z,21.60
2018-04-13T12:22:21.425Z,21.60
2018-04-13T12:24:49.131Z,21.30
2018-04-13T12:27:16.785Z,21.00
2018-04-13T12:29:44.375Z,20.70
2018-04-13T12:35:03.447Z,20.70
2018-04-13T12:37:31.112Z,21.00
2018-04-13T12:39:59.539Z,21.10
2018-04-13T12:42:27.133Z,21.10
2018-04-13T12:44:54.756Z,20.70
2018-04-13T12:47:23.351Z,20.50
2018-04-13T12:49:51.037Z,20.40
2018-04-13T12:52:18.671Z,20.50
2018-04-13T12:54:46.488Z,20.80
2018-04-13T12:57:13.966Z,21.20
2018-04-13T12:59:41.837Z,21.60
2018-04-13T13:02:09.605Z,21.50
2018-04-13T13:04:38.108Z,21.80
2018-04-13T13:07:06.243Z,22.30
2018-04-13T13:09:33.860Z,23.20
2018-04-13T13:12:01.514Z,23.70
2018-04-13T13:14:29.159Z,23.80
2018-04-13T13:16:56.748Z,23.90
2018-04-13T13:19:24.517Z,23.70
2018-04-13T13:21:52.173Z,23.10
2018-04-13T13:24:19.764Z,22.50
2018-04-13T13:26:48.197Z,22.30
2018-04-13T13:29:15.800Z,22.30
2018-04-13T13:31:44.415Z,22.10
2018-04-13T13:34:12.682Z,22.10
2018-04-13T13:36:40.301Z,21.90
2018-04-13T13:39:08.709Z,22.10
2018-04-13T13:41:36.673Z,22.10
2018-04-13T13:44:04.489Z,22.50
2018-04-13T13:46:32.387Z,22.80
2018-04-13T13:49:00.889Z,23.80
2018-04-13T13:51:28.561Z,23.80
2018-04-13T13:53:56.195Z,23.90
2018-04-13T13:56:24.547Z,23.60
2018-04-13T13:58:52.185Z,23.60
2018-04-13T14:01:20.536Z,23.60
2018-04-13T14:06:39.225Z,24.40
2018-04-13T14:09:06.951Z,24.70
2018-04-13T14:11:34.926Z,24.30
2018-04-13T14:14:02.697Z,24.40
2018-04-13T14:16:31.052Z,24.70
2018-04-13T14:18:59.567Z,25.90
2018-04-13T14:21:27.927Z,25.90
2018-04-13T14:23:55.688Z,26.90
2018-04-13T14:26:24.215Z,27.00
2018-04-13T14:28:51.847Z,26.70
2018-04-13T14:31:19.504Z,27.00
2018-04-13T14:33:47.473Z,27.30
2018-04-13T14:36:15.708Z,27.10
2018-04-13T14:38:43.369Z,27.10
2018-04-13T14:41:11.820Z,27.00
2018-04-13T14:43:39.482Z,27.00
2018-04-13T14:46:07.094Z,27.40
2018-04-13T14:48:34.676Z,27.50
2018-04-13T14:51:02.288Z,27.50
2018-04-13T14:53:29.907Z,26.70
2018-04-13T14:55:57.601Z,26.00
2018-04-13T14:58:25.184Z,25.70
2018-04-13T15:00:53.814Z,25.80
2018-04-13T15:03:21.500Z,25.80
2018-04-13T15:05:49.099Z,25.70
2018-04-13T15:08:16.773Z,26.20
2018-04-13T15:10:44.593Z,27.50
2018-04-13T15:13:12.256Z,28.80
2018-04-13T15:15:39.864Z,30.60
2018-04-13T15:18:07.524Z,31.80
2018-04-13T15:20:36.000Z,31.70
2018-04-13T15:23:03.668Z,31.30
2018-04-13T15:25:31.503Z,31.00
2018-04-13T15:27:59.883Z,29.00
2018-04-13T15:30:28.329Z,27.00
2018-04-13T15:32:55.983Z,27.00
2018-04-13T15:35:23.647Z,25.50
2018-04-13T15:37:51.292Z,24.70
2018-04-13T15:40:18.964Z,24.20
2018-04-13T15:42:46.823Z,23.70
2018-04-13T15:45:14.479Z,23.40
2018-04-13T15:47:42.239Z,23.20
2018-04-13T15:50:09.872Z,23.00
2018-04-13T15:52:37.499Z,22.80
2018-04-13T15:55:06.044Z,22.50
2018-04-13T15:57:33.662Z,22.50
2018-04-13T16:00:02.064Z,22.40
2018-04-13T16:02:29.645Z,22.40
2018-04-13T16:04:57.307Z,22.20
2018-04-13T16:07:24.912Z,22.10
2018-04-13T16:09:54.002Z,21.70
2018-04-13T16:12:22.494Z,21.00
2018-04-13T16:14:50.857Z,20.40
2018-04-13T16:17:19.432Z,19.90
2018-04-13T16:19:47.350Z,19.80
2018-04-13T16:22:14.963Z,19.70
2018-04-13T16:24:42.581Z,19.40
2018-04-13T16:27:10.258Z,19.30
2018-04-13T16:29:37.877Z,19.20
2018-04-13T16:32:05.465Z,19.10
2018-04-13T16:34:33.121Z,18.90
2018-04-13T16:37:00.703Z,18.90
2018-04-13T16:39:28.382Z,18.80
2018-04-13T16:41:55.965Z,18.60
2018-04-13T16:44:23.563Z,18.40
2018-04-13T16:46:51.304Z,18.40
2018-04-13T16:49:19.708Z,18.30
2018-04-13T16:51:47.397Z,18.30
2018-04-13T16:54:15.041Z,18.30
2018-04-13T16:56:42.663Z,18.20
2018-04-13T16:59:10.343Z,18.20
2018-04-13T17:01:38.151Z,18.10
2018-04-13T17:04:05.833Z,18.10
2018-04-13T17:06:34.242Z,18.20
2018-04-13T17:09:01.950Z,18.10
2018-04-13T17:11:29.889Z,18.20
2018-04-13T17:13:57.578Z,18.10
2018-04-13T17:16:25.220Z,18.20
2018-04-13T17:18:52.846Z,18.20
2018-04-13T17:21:20.483Z,18.20
2018-04-13T17:23:48.873Z,18.10
2018-04-13T17:26:16.711Z,18.10
2018-04-13T17:28:44.403Z,18.10
2018-04-13T17:31:12.041Z,18.10
2018-04-13T17:33:40.420Z,18.00
2018-04-13T17:36:08.851Z,18.00
2018-04-13T17:38:36.510Z,17.90
2018-04-13T17:41:04.231Z,18.00
2018-04-13T17:43:32.703Z,18.00
2018-04-13T17:46:01.679Z,18.00
2018-04-13T17:48:30.511Z,18.00
2018-04-13T17:50:59.067Z,18.00
2018-04-13T17:53:27.559Z,17.90
2018-04-13T17:55:55.361Z,17.90
2018-04-13T17:58:24.079Z,17.80
2018-04-13T18:00:52.596Z,17.60
2018-04-13T18:03:21.063Z,17.60
2018-04-13T18:05:48.828Z,17.20
2018-04-13T18:08:17.235Z,17.00
2018-04-13T18:10:45.041Z,16.90
2018-04-13T18:13:12.774Z,16.40
2018-04-13T18:15:40.435Z,14.40
2018-04-13T18:18:08.099Z,13.60
2018-04-13T18:20:35.761Z,13.30
2018-04-13T18:23:04.202Z,13.20
2018-04-13T18:25:31.820Z,13.10
2018-04-13T18:27:59.477Z,13.00
2018-04-13T18:30:27.142Z,13.00
2018-04-13T18:32:55.537Z,13.30
2018-04-13T18:35:24.100Z,13.30
2018-04-13T18:37:52.622Z,13.70
2018-04-13T18:40:21.641Z,13.70
2018-04-13T18:42:49.339Z,13.70
2018-04-13T18:45:16.988Z,13.60
2018-04-13T18:47:47.199Z,13.50
2018-04-13T18:50:14.867Z,13.50
2018-04-13T18:52:42.500Z,13.60
2018-04-13T18:55:10.148Z,13.60
2018-04-13T18:57:38.469Z,13.60
2018-04-13T19:00:06.694Z,13.70
2018-04-13T19:02:34.363Z,13.70
2018-04-13T19:05:02.040Z,13.80
2018-04-13T19:07:29.689Z,13.90
2018-04-13T19:09:57.362Z,13.90
2018-04-13T19:12:25.035Z,14.00
2018-04-13T19:14:52.672Z,14.10
2018-04-13T19:17:20.333Z,14.00
2018-04-13T19:19:48.125Z,14.10
2018-04-13T19:22:15.798Z,14.10
2018-04-13T19:24:44.293Z,14.10
2018-04-13T19:27:12.960Z,14.10
2018-04-13T19:29:56.192Z,14.10
2018-04-13T19:32:23.835Z,14.10
2018-04-13T19:34:52.380Z,14.10
2018-04-13T19:37:20.870Z,14.20
2018-04-13T19:39:48.592Z,14.20
2018-04-13T19:42:16.200Z,14.30
2018-04-13T19:44:43.899Z,14.20
2018-04-13T19:47:11.526Z,14.20
2018-04-13T19:49:39.463Z,14.20
2018-04-13T19:52:08.184Z,14.10
2018-04-13T19:54:37.345Z,14.10
2018-04-13T19:57:07.182Z,14.10
2018-04-13T19:59:34.906Z,14.10
2018-04-13T20:02:02.653Z,14.00
2018-04-13T20:04:30.541Z,14.00
2018-04-13T20:07:00.175Z,14.10
2018-04-13T20:09:28.496Z,14.10
2018-04-13T20:11:57.498Z,14.10
2018-04-13T20:14:26.250Z,14.10
2018-04-13T20:16:53.912Z,14.10
2018-04-13T20:19:21.694Z,14.10
2018-04-13T20:21:49.316Z,14.00
2018-04-13T20:24:17.262Z,14.00
2018-04-13T20:26:45.205Z,14.00
2018-04-13T20:29:13.072Z,13.90
2018-04-13T20:31:41.377Z,13.80
2018-04-13T20:34:10.169Z,13.80
2018-04-13T20:36:38.590Z,13.80
2018-04-13T20:39:06.604Z,13.80
2018-04-13T20:41:35.151Z,13.90
2018-04-13T20:44:02.771Z,13.80
2018-04-13T20:46:30.407Z,13.90
2018-04-13T20:49:00.377Z,13.90
2018-04-13T20:51:28.049Z,13.90
2018-04-13T20:53:55.778Z,14.00
2018-04-13T20:56:23.562Z,14.00
2018-04-13T20:58:51.529Z,14.00
2018-04-13T21:01:19.310Z,14.00
2018-04-13T21:03:47.827Z,14.00
2018-04-13T21:06:16.279Z,14.00
2018-04-13T21:08:44.031Z,14.00
2018-04-13T21:11:12.200Z,14.00
2018-04-13T21:13:39.871Z,13.90
2018-04-13T21:16:11.822Z,13.90
2018-04-13T21:18:39.505Z,14.00
2018-04-13T21:21:07.203Z,14.00
2018-04-13T21:23:34.937Z,14.00
2018-04-13T21:26:02.723Z,14.10
2018-04-13T21:28:31.852Z,14.10
2018-04-13T21:30:59.626Z,14.10
2018-04-13T21:33:27.246Z,14.10
2018-04-13T21:35:55.654Z,14.20
2018-04-13T21:38:23.315Z,14.20
2018-04-13T21:40:50.977Z,14.20
2018-04-13T21:43:18.663Z,14.20
2018-04-13T21:45:46.345Z,14.30
2018-04-13T21:48:13.932Z,14.20
2018-04-13T21:50:42.284Z,14.20
2018-04-13T21:53:10.049Z,14.20
2018-04-13T21:55:38.425Z,14.20
2018-04-13T22:00:57.237Z,14.20
2018-04-13T22:03:24.865Z,14.10
2018-04-13T22:05:52.790Z,14.10
2018-04-13T22:08:21.356Z,14.10
2018-04-13T22:10:49.114Z,14.10
2018-04-13T22:13:28.750Z,14.00
2018-04-13T22:15:56.641Z,14.00
2018-04-13T22:18:24.288Z,13.90
2018-04-13T22:20:51.940Z,13.80
2018-04-13T22:23:20.436Z,13.70
2018-04-13T22:25:48.694Z,13.60
2018-04-13T22:28:16.330Z,13.60
2018-04-13T22:30:44.736Z,13.50
2018-04-13T22:33:12.322Z,13.50
2018-04-13T22:35:40.101Z,13.50
2018-04-13T22:38:08.424Z,13.40
2018-04-13T22:40:36.792Z,13.40
2018-04-13T22:43:05.177Z,13.40
2018-04-13T22:45:32.967Z,13.40
2018-04-13T22:48:02.179Z,13.40
2018-04-13T22:50:29.764Z,13.40
2018-04-13T22:52:58.145Z,13.40
2018-04-13T22:55:26.522Z,13.30
2018-04-13T22:57:54.112Z,13.20
2018-04-13T23:00:22.498Z,12.90
2018-04-13T23:02:50.081Z,12.90
2018-04-13T23:05:17.667Z,12.90
2018-04-13T23:07:45.324Z,12.80
2018-04-13T23:10:12.945Z,12.60
2018-04-13T23:12:40.629Z,12.50
2018-04-13T23:15:08.271Z,12.50
2018-04-13T23:17:36.232Z,12.40
2018-04-13T23:20:04.109Z,12.40
2018-04-13T23:22:37.624Z,12.40
2018-04-13T23:25:05.297Z,12.40
2018-04-13T23:27:33.723Z,12.40
2018-04-13T23:30:02.197Z,12.40
2018-04-13T23:32:30.587Z,12.40
2018-04-13T23:34:58.234Z,12.40
2018-04-13T23:37:26.588Z,12.40
2018-04-13T23:39:54.193Z,12.40
2018-04-13T23:42:21.874Z,12.40
2018-04-13T23:44:50.243Z,12.40
2018-04-13T23:47:18.168Z,12.40
2018-04-13T23:49:46.589Z,12.40
2018-04-13T23:52:14.197Z,12.40
2018-04-13T23:54:41.823Z,12.40
2018-04-13T23:57:09.469Z,12.40
2018-04-13T23:59:37.081Z,12.40
